Terminal Aerodrome Forecast
Issued by NWS

Home | Current Version | Previous Version | Graphics & Text | Print | Product List | Glossary On
Versions: 1 2 3 4 5 6 7 8 9 10 11 12 13 14 15 16
000
FTUS43 KTOP 221843 AAA
TAFMHK
TAF AMD
KMHK 221843Z 2219/2318 24008KT P6SM -RA VCTS FEW025 BKN040CB
     FM222300 22006KT P6SM BKN100
     FM230600 29004KT P6SM -SHRA VCTS OVC030CB
     FM230900 34008KT P6SM BKN030=

USA.gov is the U.S. government's official web portal to all federal, state and local government web resources and services.